createdAt,value
2018-05-08T00:00:32.680Z,11.47
2018-05-08T00:03:09.148Z,13.17
2018-05-08T00:05:44.397Z,11.47
2018-05-08T00:08:20.241Z,11.10
2018-05-08T00:10:55.893Z,11.70
2018-05-08T00:13:31.575Z,11.60
2018-05-08T00:16:06.582Z,9.70
2018-05-08T00:18:42.226Z,9.70
2018-05-08T00:21:18.489Z,11.37
2018-05-08T00:23:53.328Z,9.17
2018-05-08T00:26:28.358Z,10.13
2018-05-08T00:29:04.019Z,9.50
2018-05-08T00:31:40.473Z,7.27
2018-05-08T00:34:16.063Z,7.90
2018-05-08T00:36:51.771Z,6.83
2018-05-08T00:39:26.809Z,6.50
2018-05-08T00:42:03.275Z,7.43
2018-05-08T00:44:38.106Z,6.57
2018-05-08T00:47:13.143Z,7.93
2018-05-08T00:49:47.974Z,7.83
2018-05-08T00:52:23.008Z,8.17
2018-05-08T00:55:06.029Z,7.27
2018-05-08T00:57:41.679Z,5.90
2018-05-08T01:00:16.853Z,7.87
2018-05-08T01:02:52.161Z,8.50
2018-05-08T01:05:27.297Z,8.67
2018-05-08T01:08:03.048Z,10.17
2018-05-08T01:10:39.415Z,11.17
2018-05-08T01:13:14.450Z,10.80
2018-05-08T01:15:49.280Z,12.40
2018-05-08T01:18:24.114Z,11.47
2018-05-08T01:21:00.579Z,11.17
2018-05-08T01:23:35.617Z,11.77
2018-05-08T01:26:10.648Z,13.60
2018-05-08T01:28:45.424Z,11.60
2018-05-08T01:31:20.673Z,11.57
2018-05-08T01:33:56.114Z,12.03
2018-05-08T01:36:31.612Z,12.73
2018-05-08T01:39:06.851Z,12.87
2018-05-08T01:41:41.952Z,11.50
2018-05-08T01:44:17.740Z,14.60
2018-05-08T01:46:52.778Z,12.67
2018-05-08T01:49:27.745Z,13.43
2018-05-08T01:52:02.642Z,14.57
2018-05-08T01:54:38.492Z,13.20
2018-05-08T01:57:13.474Z,13.00
2018-05-08T01:59:49.179Z,12.23
2018-05-08T02:02:27.903Z,13.93
2018-05-08T02:05:02.936Z,13.13
2018-05-08T02:07:38.187Z,12.97
2018-05-08T02:10:13.218Z,13.67
2018-05-08T02:12:48.864Z,13.67
2018-05-08T02:15:24.716Z,13.20
2018-05-08T02:17:59.961Z,13.30
2018-05-08T02:20:35.286Z,14.70
2018-05-08T02:23:11.059Z,14.60
2018-05-08T02:25:45.885Z,14.13
2018-05-08T02:28:21.121Z,13.13
2018-05-08T02:30:55.952Z,13.43
2018-05-08T02:33:31.195Z,14.47
2018-05-08T02:36:07.456Z,15.17
2018-05-08T02:38:43.314Z,14.80
2018-05-08T02:41:20.601Z,14.80
2018-05-08T02:43:55.657Z,14.70
2018-05-08T02:46:30.464Z,15.07
2018-05-08T02:49:06.932Z,14.30
2018-05-08T02:51:42.434Z,17.03
2018-05-08T02:54:17.631Z,16.07
2018-05-08T02:56:52.445Z,17.57
2018-05-08T02:59:27.277Z,17.90
2018-05-08T03:02:02.312Z,18.03
2018-05-08T03:04:37.143Z,18.40
2018-05-08T03:07:12.183Z,18.73
2018-05-08T03:09:47.873Z,19.47
2018-05-08T03:12:22.778Z,17.63
2018-05-08T03:14:58.042Z,16.30
2018-05-08T03:17:34.012Z,17.17
2018-05-08T03:20:09.296Z,18.33
2018-05-08T03:22:45.766Z,15.93
2018-05-08T03:25:20.801Z,17.73
2018-05-08T03:27:56.250Z,15.93
2018-05-08T03:30:31.485Z,18.20
2018-05-08T03:33:06.255Z,17.60
2018-05-08T03:35:41.355Z,17.20
2018-05-08T03:38:16.795Z,17.10
2018-05-08T03:40:51.829Z,19.87
2018-05-08T03:43:27.653Z,17.50
2018-05-08T03:46:03.337Z,19.20
2018-05-08T03:48:38.266Z,20.13
2018-05-08T03:51:13.518Z,18.20
2018-05-08T03:53:49.161Z,16.73
2018-05-08T03:56:23.996Z,19.17
2018-05-08T03:58:59.226Z,19.03
2018-05-08T04:01:45.537Z,17.30
2018-05-08T04:04:34.756Z,17.70
2018-05-08T04:07:22.938Z,19.50
2018-05-08T04:09:58.186Z,19.20
2018-05-08T04:12:33.170Z,20.83
2018-05-08T04:15:09.706Z,17.97
2018-05-08T04:17:44.926Z,18.30
2018-05-08T04:20:20.780Z,17.77
2018-05-08T04:22:56.598Z,19.83
2018-05-08T04:25:31.464Z,19.17
2018-05-08T04:28:06.859Z,18.30
2018-05-08T04:30:43.383Z,18.47
2018-05-08T04:33:18.418Z,18.07
2018-05-08T04:35:54.476Z,20.17
2018-05-08T04:38:29.816Z,16.80
2018-05-08T04:41:05.664Z,18.17
2018-05-08T04:43:40.601Z,17.40
2018-05-08T04:46:16.348Z,18.23
2018-05-08T04:48:51.846Z,16.60
2018-05-08T04:51:28.099Z,16.10
2018-05-08T04:54:03.549Z,15.83
2018-05-08T04:56:38.334Z,14.53
2018-05-08T04:59:14.128Z,15.57
2018-05-08T05:01:50.793Z,16.50
2018-05-08T05:04:26.514Z,14.13
2018-05-08T05:07:02.243Z,17.53
2018-05-08T05:09:37.447Z,15.33
2018-05-08T05:12:13.050Z,15.40
2018-05-08T05:14:49.520Z,12.67
2018-05-08T05:17:25.413Z,16.37
2018-05-08T05:20:00.715Z,16.40
2018-05-08T05:22:36.365Z,17.50
2018-05-08T05:25:11.895Z,15.90
2018-05-08T05:27:47.182Z,15.03
2018-05-08T05:30:23.833Z,14.83
2018-05-08T05:33:01.523Z,14.63
2018-05-08T05:35:36.711Z,13.50
2018-05-08T05:38:11.796Z,12.17
2018-05-08T05:40:47.449Z,13.43
2018-05-08T05:43:22.633Z,12.70
2018-05-08T05:45:58.338Z,10.93
2018-05-08T05:48:33.600Z,10.20
2018-05-08T05:51:08.823Z,10.83
2018-05-08T05:56:25.240Z,9.50
2018-05-08T05:59:00.476Z,8.03
2018-05-08T06:01:35.580Z,8.70
2018-05-08T06:04:11.263Z,6.93
2018-05-08T06:06:46.272Z,7.40
2018-05-08T06:09:23.630Z,7.67
2018-05-08T06:11:59.818Z,8.60
2018-05-08T06:14:36.418Z,7.63
2018-05-08T06:17:11.834Z,7.27
2018-05-08T06:19:46.635Z,8.60
2018-05-08T06:22:21.526Z,9.73
2018-05-08T06:24:57.382Z,8.50
2018-05-08T06:27:33.259Z,8.37
2018-05-08T06:30:09.396Z,10.20
2018-05-08T06:32:44.538Z,14.00
2018-05-08T06:35:19.472Z,14.40
2018-05-08T06:37:55.834Z,12.97
2018-05-08T06:40:31.281Z,11.57
2018-05-08T06:43:06.721Z,13.20
2018-05-08T06:45:43.191Z,12.03
2018-05-08T06:48:18.225Z,13.63
2018-05-08T06:50:54.090Z,14.37
2018-05-08T06:53:30.551Z,13.87
2018-05-08T06:56:05.788Z,14.00
2018-05-08T06:58:42.221Z,17.57
2018-05-08T07:01:18.112Z,18.43
2018-05-08T07:03:53.752Z,21.80
2018-05-08T07:06:29.002Z,19.20
2018-05-08T07:09:04.861Z,18.53
2018-05-08T07:11:40.098Z,17.97
2018-05-08T07:14:14.929Z,15.70
2018-05-08T07:16:50.198Z,13.20
2018-05-08T07:19:25.568Z,10.83
2018-05-08T07:22:01.264Z,10.43
2018-05-08T07:24:36.091Z,12.00
2018-05-08T07:27:11.127Z,10.80
2018-05-08T07:29:45.955Z,10.90
2018-05-08T07:32:20.786Z,8.63
2018-05-08T07:34:55.820Z,8.80
2018-05-08T07:37:31.856Z,8.60
2018-05-08T07:40:08.351Z,7.83
2018-05-08T07:42:44.004Z,6.93
2018-05-08T07:45:20.739Z,10.10
2018-05-08T07:47:56.319Z,10.10
2018-05-08T07:50:31.458Z,16.10
2018-05-08T07:53:06.289Z,11.10
2018-05-08T07:55:41.676Z,10.60
2018-05-08T07:58:16.917Z,10.10
2018-05-08T08:00:51.844Z,12.47
2018-05-08T08:03:27.744Z,11.13
2018-05-08T08:06:02.692Z,12.43
2018-05-08T08:08:37.465Z,13.53
2018-05-08T08:11:12.355Z,13.37
2018-05-08T08:13:47.292Z,13.97
2018-05-08T08:16:23.496Z,15.67
2018-05-08T08:18:58.528Z,15.23
2018-05-08T08:21:34.031Z,15.10
2018-05-08T08:24:09.065Z,15.13
2018-05-08T08:26:44.500Z,15.87
2018-05-08T08:29:20.373Z,17.50
2018-05-08T08:31:57.446Z,16.40
2018-05-08T08:34:32.899Z,17.27
2018-05-08T08:37:09.311Z,15.20
2018-05-08T08:39:44.608Z,18.83
2018-05-08T08:42:20.049Z,18.33
2018-05-08T08:44:55.288Z,18.50
2018-05-08T08:47:30.656Z,16.87
2018-05-08T08:50:05.869Z,15.03
2018-05-08T08:52:41.213Z,17.10
2018-05-08T08:55:17.070Z,17.70
2018-05-08T08:57:52.051Z,17.80
2018-05-08T09:00:28.163Z,15.87
2018-05-08T09:03:03.609Z,16.10
2018-05-08T09:05:39.003Z,16.30
2018-05-08T09:08:14.290Z,15.27
2018-05-08T09:10:49.324Z,15.03
2018-05-08T09:13:25.997Z,14.03
2018-05-08T09:16:01.034Z,16.40
2018-05-08T09:18:36.228Z,16.37
2018-05-08T09:21:12.127Z,14.43
2018-05-08T09:23:48.188Z,15.70
2018-05-08T09:26:23.725Z,13.70
2018-05-08T09:28:59.491Z,12.00
2018-05-08T09:31:35.957Z,12.27
2018-05-08T09:34:11.347Z,15.20
2018-05-08T09:36:46.645Z,12.60
2018-05-08T09:39:22.595Z,14.60
2018-05-08T09:41:58.056Z,12.50
2018-05-08T09:44:33.085Z,10.93
2018-05-08T09:47:09.142Z,11.73
2018-05-08T09:49:45.260Z,11.67
2018-05-08T09:52:20.848Z,12.43
2018-05-08T09:54:55.686Z,10.13
2018-05-08T09:57:31.472Z,15.63
2018-05-08T10:00:06.360Z,13.80
2018-05-08T10:02:41.804Z,14.50
2018-05-08T10:05:16.845Z,14.87
2018-05-08T10:07:52.695Z,13.43
2018-05-08T10:10:29.272Z,13.00
2018-05-08T10:13:04.407Z,16.40
2018-05-08T10:15:39.240Z,14.40
2018-05-08T10:18:14.887Z,17.70
2018-05-08T10:20:50.531Z,14.50
2018-05-08T10:23:25.363Z,15.97
2018-05-08T10:26:00.805Z,13.67
2018-05-08T10:28:35.642Z,14.17
2018-05-08T10:31:10.893Z,12.67
2018-05-08T10:33:46.290Z,13.87
2018-05-08T10:36:21.092Z,15.23
2018-05-08T10:38:56.190Z,14.37
2018-05-08T10:41:31.426Z,17.13
2018-05-08T10:44:06.468Z,13.70
2018-05-08T10:46:42.301Z,15.77
2018-05-08T10:49:17.911Z,18.97
2018-05-08T10:51:53.624Z,15.83
2018-05-08T10:54:29.470Z,14.17
2018-05-08T10:57:04.504Z,16.27
2018-05-08T10:59:39.335Z,15.47
2018-05-08T11:02:15.188Z,15.37
2018-05-08T11:04:50.025Z,16.70
2018-05-08T11:07:25.669Z,14.17
2018-05-08T11:10:00.915Z,16.67
2018-05-08T11:12:36.776Z,14.03
2018-05-08T11:15:11.824Z,14.57
2018-05-08T11:17:46.630Z,16.50
2018-05-08T11:20:21.461Z,16.80
2018-05-08T11:22:56.287Z,15.47
2018-05-08T11:25:31.120Z,16.13
2018-05-08T11:28:06.767Z,16.00
2018-05-08T11:30:41.915Z,15.90
2018-05-08T11:33:18.378Z,12.70
2018-05-08T11:35:54.170Z,13.47
2018-05-08T11:38:29.263Z,13.63
2018-05-08T11:41:05.362Z,14.33
2018-05-08T11:43:40.567Z,14.60
2018-05-08T11:46:15.609Z,14.17
2018-05-08T11:48:52.068Z,13.73
2018-05-08T11:51:27.102Z,14.63
2018-05-08T11:54:02.035Z,13.60
2018-05-08T11:56:38.098Z,15.27
2018-05-08T11:59:12.867Z,13.30
2018-05-08T12:01:47.756Z,13.20
2018-05-08T12:04:23.403Z,12.77
2018-05-08T12:06:59.401Z,12.50
2018-05-08T12:09:34.909Z,15.13
2018-05-08T12:12:10.511Z,15.20
2018-05-08T12:14:45.619Z,11.93
2018-05-08T12:17:21.618Z,11.70
2018-05-08T12:19:56.915Z,11.77
2018-05-08T12:22:31.935Z,11.20
2018-05-08T12:25:07.578Z,9.83
2018-05-08T12:27:42.615Z,9.00
2018-05-08T12:30:17.443Z,9.10
2018-05-08T12:32:52.212Z,10.00
2018-05-08T12:35:27.109Z,9.50
2018-05-08T12:38:02.141Z,12.37
2018-05-08T12:40:37.179Z,8.17
2018-05-08T12:43:12.219Z,8.30
2018-05-08T12:45:48.006Z,8.53
2018-05-08T12:48:23.042Z,9.20
2018-05-08T12:50:59.121Z,8.80
2018-05-08T12:53:34.886Z,8.27
2018-05-08T12:56:09.897Z,10.13
2018-05-08T12:58:45.084Z,10.07
2018-05-08T13:01:21.734Z,9.93
2018-05-08T13:03:56.603Z,9.00
2018-05-08T13:06:31.793Z,10.03
2018-05-08T13:09:07.685Z,9.23
2018-05-08T13:11:43.094Z,8.70
2018-05-08T13:14:18.595Z,8.60
2018-05-08T13:16:54.429Z,6.47
2018-05-08T13:19:29.253Z,5.93
2018-05-08T13:22:04.291Z,6.47
2018-05-08T13:24:40.961Z,6.00
2018-05-08T13:27:17.230Z,7.10
2018-05-08T13:29:52.466Z,6.40
2018-05-08T13:32:28.320Z,5.87
2018-05-08T13:35:03.920Z,7.57
2018-05-08T13:37:39.824Z,6.47
2018-05-08T13:40:16.711Z,6.77
2018-05-08T13:42:52.936Z,5.77
2018-05-08T13:45:29.396Z,4.80
2018-05-08T13:48:04.499Z,4.47
2018-05-08T13:50:40.216Z,5.87
2018-05-08T13:53:15.564Z,5.37
2018-05-08T13:55:50.402Z,5.83
2018-05-08T13:58:25.385Z,5.47
2018-05-08T14:01:01.970Z,5.03
2018-05-08T14:03:37.145Z,3.90
2018-05-08T14:06:13.003Z,4.63
2018-05-08T14:08:47.893Z,3.70
2018-05-08T14:11:23.070Z,4.03
2018-05-08T14:13:58.721Z,4.50
2018-05-08T14:16:33.560Z,4.00
2018-05-08T14:19:09.486Z,4.40
2018-05-08T14:21:45.465Z,4.27
2018-05-08T14:24:20.904Z,4.50
2018-05-08T14:26:56.729Z,3.57
2018-05-08T14:29:32.820Z,3.90
2018-05-08T14:32:07.854Z,4.67
2018-05-08T14:34:43.402Z,4.77
2018-05-08T14:37:20.389Z,4.20
2018-05-08T14:39:56.370Z,3.27
2018-05-08T14:42:32.714Z,4.07
2018-05-08T14:45:08.455Z,3.23
2018-05-08T14:47:43.766Z,4.23
2018-05-08T14:50:18.590Z,4.00
2018-05-08T14:52:54.286Z,3.70
2018-05-08T14:55:29.665Z,3.97
2018-05-08T14:58:05.952Z,4.73
2018-05-08T15:00:41.437Z,4.27
2018-05-08T15:03:17.363Z,4.60
2018-05-08T15:05:53.964Z,5.30
2018-05-08T15:08:30.296Z,4.13
2018-05-08T15:11:06.086Z,4.70
2018-05-08T15:13:42.954Z,4.60
2018-05-08T15:16:19.468Z,4.80
2018-05-08T15:18:54.672Z,4.80
2018-05-08T15:21:31.594Z,3.97
2018-05-08T15:24:07.182Z,4.20
2018-05-08T15:26:42.149Z,5.37
2018-05-08T15:29:18.293Z,4.10
2018-05-08T15:31:54.995Z,4.60
2018-05-08T15:34:31.429Z,4.97
2018-05-08T15:37:09.200Z,5.17
2018-05-08T15:39:45.532Z,5.10
2018-05-08T15:42:22.978Z,5.90
2018-05-08T15:44:58.473Z,4.83
2018-05-08T15:47:34.794Z,4.83
2018-05-08T15:50:09.835Z,8.93
2018-05-08T15:52:44.866Z,5.80
2018-05-08T15:55:21.337Z,5.00
2018-05-08T15:57:56.167Z,5.70
2018-05-08T16:00:31.096Z,4.83
2018-05-08T16:03:06.133Z,7.20
2018-05-08T16:05:40.966Z,6.50
2018-05-08T16:08:18.043Z,9.70
2018-05-08T16:10:53.842Z,10.20
2018-05-08T16:13:30.732Z,10.40
2018-05-08T16:16:06.738Z,11.17
2018-05-08T16:18:42.395Z,11.37
2018-05-08T16:21:18.882Z,9.20
2018-05-08T16:23:53.889Z,10.63
2018-05-08T16:26:29.649Z,12.70
2018-05-08T16:29:05.662Z,10.10
2018-05-08T16:31:42.800Z,9.80
2018-05-08T16:34:18.760Z,11.00
2018-05-08T16:36:56.325Z,11.27
2018-05-08T16:39:32.211Z,11.80
2018-05-08T16:42:07.661Z,11.03
2018-05-08T16:44:44.146Z,11.73
2018-05-08T16:47:20.081Z,12.00
2018-05-08T16:49:56.030Z,12.33
2018-05-08T16:52:34.061Z,12.23
2018-05-08T16:55:11.094Z,13.73
2018-05-08T16:57:48.256Z,12.70
2018-05-08T17:00:24.211Z,11.00
2018-05-08T17:02:59.706Z,12.00
2018-05-08T17:05:36.075Z,12.10
2018-05-08T17:08:12.674Z,12.30
2018-05-08T17:10:48.645Z,13.73
2018-05-08T17:13:24.010Z,15.47
2018-05-08T17:15:59.893Z,14.70
2018-05-08T17:18:35.699Z,11.70
2018-05-08T17:21:12.215Z,10.50
2018-05-08T17:23:48.212Z,11.10
2018-05-08T17:26:23.852Z,9.27
2018-05-08T17:28:59.919Z,10.13
2018-05-08T17:31:35.112Z,12.27
2018-05-08T17:34:10.438Z,12.43
2018-05-08T17:36:45.905Z,13.33
2018-05-08T17:39:21.300Z,12.57
2018-05-08T17:44:39.973Z,13.70
2018-05-08T17:47:17.328Z,14.30
2018-05-08T17:49:52.578Z,12.83
2018-05-08T17:52:28.015Z,14.27
2018-05-08T17:55:03.059Z,17.00
2018-05-08T17:57:39.531Z,15.77
2018-05-08T18:00:14.927Z,17.73
2018-05-08T18:02:51.187Z,18.60
2018-05-08T18:05:26.288Z,18.23
2018-05-08T18:08:01.507Z,16.27
2018-05-08T18:10:37.947Z,18.07
2018-05-08T18:13:14.618Z,19.90
2018-05-08T18:15:51.430Z,18.63
2018-05-08T18:18:26.943Z,21.13
2018-05-08T18:21:02.400Z,19.47
2018-05-08T18:23:38.584Z,18.70
2018-05-08T18:26:15.121Z,18.97
2018-05-08T18:28:51.790Z,22.63
2018-05-08T18:31:27.029Z,19.10
2018-05-08T18:34:04.700Z,20.30
2018-05-08T18:36:40.541Z,19.67
2018-05-08T18:39:16.375Z,19.70
2018-05-08T18:41:53.299Z,19.47
2018-05-08T18:44:31.033Z,20.87
2018-05-08T18:47:06.809Z,18.67
2018-05-08T18:49:42.978Z,86.20
2018-05-08T18:52:18.373Z,22.57
2018-05-08T18:54:54.862Z,21.83
2018-05-08T18:57:30.703Z,19.00
2018-05-08T19:00:12.898Z,16.13
2018-05-08T19:02:47.935Z,18.20
2018-05-08T19:05:23.589Z,18.77
2018-05-08T19:08:00.424Z,20.20
2018-05-08T19:10:38.152Z,14.83
2018-05-08T19:13:14.370Z,16.27
2018-05-08T19:15:55.604Z,16.47
2018-05-08T19:18:37.149Z,17.53
2018-05-08T19:21:14.687Z,20.90
2018-05-08T19:23:55.917Z,18.67
2018-05-08T19:26:31.969Z,18.70
2018-05-08T19:29:14.127Z,19.20
2018-05-08T19:31:52.083Z,20.43
2018-05-08T19:34:33.181Z,20.00
2018-05-08T19:37:14.183Z,18.87
2018-05-08T19:39:49.318Z,17.53
2018-05-08T19:42:24.671Z,16.20
2018-05-08T19:44:59.491Z,16.43
2018-05-08T19:47:36.167Z,14.77
2018-05-08T19:50:11.609Z,15.90
2018-05-08T19:52:46.448Z,17.40
2018-05-08T19:55:21.475Z,18.33
2018-05-08T19:57:57.172Z,16.27
2018-05-08T20:00:32.398Z,17.50
2018-05-08T20:03:08.017Z,17.60
2018-05-08T20:05:42.795Z,15.17
2018-05-08T20:08:18.308Z,17.07
2018-05-08T20:10:54.091Z,18.30
2018-05-08T20:13:29.838Z,17.87
2018-05-08T20:16:05.397Z,18.97
2018-05-08T20:18:40.506Z,19.00
2018-05-08T20:21:16.176Z,18.03
2018-05-08T20:23:53.396Z,19.60
2018-05-08T20:26:30.496Z,21.07
2018-05-08T20:29:06.152Z,24.90
2018-05-08T20:31:42.615Z,22.10
2018-05-08T20:34:17.871Z,19.60
2018-05-08T20:36:54.408Z,23.17
2018-05-08T20:39:30.154Z,21.07
2018-05-08T20:42:05.832Z,22.30
2018-05-08T20:44:41.067Z,24.20
2018-05-08T20:47:16.722Z,24.40
2018-05-08T20:49:52.366Z,22.70
2018-05-08T20:52:28.641Z,23.87
2018-05-08T20:55:04.280Z,24.00
2018-05-08T20:57:39.275Z,22.00
2018-05-08T21:00:15.373Z,23.30
2018-05-08T21:02:50.207Z,73.87
2018-05-08T21:05:26.474Z,24.70
2018-05-08T21:08:01.917Z,20.30
2018-05-08T21:10:37.565Z,22.50
2018-05-08T21:13:12.804Z,22.83
2018-05-08T21:15:48.462Z,22.63
2018-05-08T21:21:27.146Z,20.20
2018-05-08T21:24:02.433Z,19.83
2018-05-08T21:26:37.675Z,22.50
2018-05-08T21:29:18.651Z,21.37
2018-05-08T21:31:53.481Z,20.43
2018-05-08T21:34:29.133Z,21.57
2018-05-08T21:37:04.162Z,20.63
2018-05-08T21:39:40.230Z,20.73
2018-05-08T21:42:17.101Z,20.50
2018-05-08T21:44:52.914Z,21.27
2018-05-08T21:47:28.143Z,22.13
2018-05-08T21:50:05.247Z,19.67
2018-05-08T21:52:40.728Z,21.10
2018-05-08T21:55:15.859Z,23.20
2018-05-08T21:57:52.577Z,21.90
2018-05-08T22:00:28.333Z,23.73
2018-05-08T22:03:05.176Z,20.70
2018-05-08T22:05:41.233Z,19.63
2018-05-08T22:08:17.181Z,21.33
2018-05-08T22:10:52.161Z,21.33
2018-05-08T22:13:28.687Z,20.20
2018-05-08T22:16:04.234Z,19.07
2018-05-08T22:18:39.881Z,20.60
2018-05-08T22:21:16.369Z,18.50
2018-05-08T22:23:52.203Z,21.13
2018-05-08T22:26:28.057Z,20.60
2018-05-08T22:29:03.503Z,21.10
2018-05-08T22:31:38.612Z,21.23
2018-05-08T22:34:16.347Z,21.33
2018-05-08T22:36:52.913Z,20.00
2018-05-08T22:39:28.573Z,20.33
2018-05-08T22:42:03.697Z,18.17
2018-05-08T22:44:40.839Z,19.50
2018-05-08T22:47:16.994Z,18.93
2018-05-08T22:49:52.650Z,18.63
2018-05-08T22:52:27.734Z,17.67
2018-05-08T22:55:02.662Z,17.13
2018-05-08T22:57:38.413Z,17.07
2018-05-08T23:00:14.269Z,15.43
2018-05-08T23:02:49.680Z,17.23
2018-05-08T23:05:24.967Z,16.90
2018-05-08T23:08:00.809Z,15.33
2018-05-08T23:10:36.664Z,16.30
2018-05-08T23:13:12.314Z,15.83
2018-05-08T23:15:47.352Z,18.10
2018-05-08T23:18:22.484Z,17.43
2018-05-08T23:20:57.425Z,17.90
2018-05-08T23:23:32.324Z,17.30
2018-05-08T23:26:07.279Z,17.80
2018-05-08T23:28:42.629Z,19.33
2018-05-08T23:31:17.808Z,16.37
2018-05-08T23:33:53.252Z,14.03
2018-05-08T23:36:28.141Z,13.60
2018-05-08T23:39:03.177Z,15.03
2018-05-08T23:41:39.242Z,12.30
2018-05-08T23:44:15.197Z,14.20
2018-05-08T23:46:50.730Z,13.93
2018-05-08T23:49:25.778Z,12.40
2018-05-08T23:52:01.492Z,13.80
2018-05-08T23:54:38.032Z,14.00
2018-05-08T23:57:14.159Z,13.63
2018-05-08T23:59:49.188Z,12.77
